createdAt,value
2018-11-12T00:02:00.820Z,92.06
2018-11-12T00:04:31.704Z,91.89
2018-11-12T00:07:02.596Z,91.92
2018-11-12T00:09:33.511Z,91.88
2018-11-12T00:12:04.441Z,91.83
2018-11-12T00:14:35.293Z,91.93
2018-11-12T00:17:06.647Z,91.96
2018-11-12T00:19:37.868Z,92.03
2018-11-12T00:22:08.796Z,91.97
2018-11-12T00:24:39.794Z,92.07
2018-11-12T00:27:10.707Z,92.05
2018-11-12T00:29:41.751Z,92.12
2018-11-12T00:32:13.117Z,92.06
2018-11-12T00:34:44.034Z,92.59
2018-11-12T00:37:15.453Z,92.51
2018-11-12T00:39:47.003Z,92.38
2018-11-12T00:42:17.944Z,92.35
2018-11-12T00:44:49.199Z,92.29
2018-11-12T00:47:20.176Z,92.56
2018-11-12T00:49:51.221Z,92.43
2018-11-12T00:52:22.189Z,92.44
2018-11-12T00:54:53.205Z,92.32
2018-11-12T00:57:24.217Z,92.39
2018-11-12T00:59:55.096Z,92.23
2018-11-12T01:02:26.099Z,92.39
2018-11-12T01:04:57.082Z,92.44
2018-11-12T01:07:28.012Z,92.65
2018-11-12T01:09:58.959Z,92.39
2018-11-12T01:12:30.020Z,91.80
2018-11-12T01:15:01.222Z,92.03
2018-11-12T01:17:32.141Z,92.55
2018-11-12T01:20:03.124Z,92.74
2018-11-12T01:22:34.841Z,92.37
2018-11-12T01:25:05.932Z,92.27
2018-11-12T01:27:36.986Z,92.14
2018-11-12T01:30:14.173Z,91.87
2018-11-12T01:32:45.352Z,91.76
2018-11-12T01:35:17.177Z,91.95
2018-11-12T01:37:48.248Z,92.46
2018-11-12T01:40:19.235Z,92.32
2018-11-12T01:42:50.487Z,93.01
2018-11-12T01:45:21.738Z,93.17
2018-11-12T01:47:52.939Z,93.13
2018-11-12T01:50:23.932Z,93.12
2018-11-12T01:52:54.953Z,93.20
2018-11-12T01:55:25.951Z,93.24
2018-11-12T01:57:56.901Z,93.37
2018-11-12T02:00:27.886Z,93.30
2018-11-12T02:02:58.896Z,93.07
2018-11-12T02:05:30.007Z,92.97
2018-11-12T02:08:01.142Z,92.79
2018-11-12T02:10:32.172Z,92.51
2018-11-12T02:13:03.756Z,92.49
2018-11-12T02:15:35.093Z,92.54
2018-11-12T02:18:06.331Z,92.57
2018-11-12T02:20:37.538Z,92.99
2018-11-12T02:23:09.361Z,92.57
2018-11-12T02:25:40.672Z,92.04
2018-11-12T02:28:11.598Z,92.38
2018-11-12T02:30:49.356Z,92.21
2018-11-12T02:33:20.518Z,92.17
2018-11-12T02:35:51.320Z,92.20
2018-11-12T02:38:22.205Z,92.10
2018-11-12T02:40:53.190Z,92.21
2018-11-12T02:43:24.301Z,92.26
2018-11-12T02:45:55.546Z,92.27
2018-11-12T02:48:26.535Z,92.21
2018-11-12T02:50:57.871Z,92.11
2018-11-12T02:53:28.798Z,92.19
2018-11-12T02:55:59.979Z,92.54
2018-11-12T02:58:31.223Z,92.79
2018-11-12T03:01:02.537Z,92.88
2018-11-12T03:03:33.807Z,92.49
2018-11-12T03:06:06.039Z,92.50
2018-11-12T03:08:37.067Z,92.76
2018-11-12T03:11:08.132Z,92.75
2018-11-12T03:13:39.040Z,92.65
2018-11-12T03:16:10.017Z,92.70
2018-11-12T03:18:48.873Z,92.76
2018-11-12T03:21:20.204Z,92.82
2018-11-12T03:23:51.112Z,93.04
2018-11-12T03:26:22.135Z,93.28
2018-11-12T03:28:53.363Z,93.32
2018-11-12T03:31:24.652Z,93.25
2018-11-12T03:33:55.667Z,93.16
2018-11-12T03:36:26.784Z,92.79
2018-11-12T03:38:57.850Z,92.58
2018-11-12T03:41:29.092Z,92.43
2018-11-12T03:44:00.327Z,92.37
2018-11-12T03:46:31.268Z,92.25
2018-11-12T03:49:02.288Z,92.27
2018-11-12T03:51:33.260Z,92.19
2018-11-12T03:54:04.193Z,92.10
2018-11-12T03:56:35.189Z,92.04
2018-11-12T03:59:06.542Z,92.20
2018-11-12T04:01:47.203Z,92.06
2018-11-12T04:04:18.487Z,92.44
2018-11-12T04:06:49.469Z,92.55
2018-11-12T04:09:20.664Z,92.46
2018-11-12T04:11:52.018Z,92.28
2018-11-12T04:14:23.098Z,91.92
2018-11-12T04:16:54.157Z,91.75
2018-11-12T04:19:25.253Z,91.95
2018-11-12T04:21:56.233Z,92.27
2018-11-12T04:24:27.265Z,92.07
2018-11-12T04:26:58.564Z,92.00
2018-11-12T04:29:29.519Z,92.04
2018-11-12T04:32:00.722Z,92.23
2018-11-12T04:34:31.624Z,92.21
2018-11-12T04:37:03.113Z,92.17
2018-11-12T04:39:34.852Z,92.13
2018-11-12T04:42:06.363Z,92.29
2018-11-12T04:44:37.861Z,93.03
2018-11-12T04:47:08.929Z,92.80
2018-11-12T04:49:40.292Z,92.93
2018-11-12T04:52:11.488Z,92.76
2018-11-12T04:54:42.464Z,92.75
2018-11-12T04:57:13.772Z,92.96
2018-11-12T04:59:44.660Z,93.11
2018-11-12T05:02:16.794Z,93.03
2018-11-12T05:04:48.608Z,92.89
2018-11-12T05:07:19.892Z,92.93
2018-11-12T05:09:51.105Z,92.72
2018-11-12T05:12:21.931Z,92.78
2018-11-12T05:14:52.998Z,92.90
2018-11-12T05:17:24.218Z,92.67
2018-11-12T05:19:55.523Z,92.89
2018-11-12T05:22:26.710Z,93.24
2018-11-12T05:24:58.156Z,93.39
2018-11-12T05:27:29.459Z,93.70
2018-11-12T05:30:01.063Z,93.79
2018-11-12T05:32:32.396Z,93.81
2018-11-12T05:35:03.399Z,93.80
2018-11-12T05:37:34.835Z,93.81
2018-11-12T05:40:07.393Z,93.79
2018-11-12T05:42:38.474Z,93.81
2018-11-12T05:45:09.578Z,93.79
2018-11-12T05:47:40.689Z,93.76
2018-11-12T05:50:20.518Z,93.74
2018-11-12T05:52:52.794Z,93.70
2018-11-12T05:55:25.821Z,93.70
2018-11-12T05:57:57.211Z,93.67
2018-11-12T06:00:29.833Z,93.65
2018-11-12T06:03:01.019Z,93.53
2018-11-12T06:05:32.850Z,93.49
2018-11-12T06:08:04.115Z,93.37
2018-11-12T06:10:35.836Z,93.29
2018-11-12T06:13:07.010Z,93.28
2018-11-12T06:15:37.994Z,93.27
2018-11-12T06:18:08.988Z,93.17
2018-11-12T06:20:39.905Z,93.15
2018-11-12T06:23:11.053Z,93.09
2018-11-12T06:25:42.492Z,93.19
2018-11-12T06:28:13.465Z,93.15
2018-11-12T06:30:44.580Z,92.96
2018-11-12T06:33:16.135Z,92.84
2018-11-12T06:35:47.117Z,92.80
2018-11-12T06:38:18.157Z,92.92
2018-11-12T06:40:49.118Z,92.91
2018-11-12T06:43:20.295Z,92.86
2018-11-12T06:45:51.337Z,92.85
2018-11-12T06:48:22.721Z,92.88
2018-11-12T06:50:53.746Z,92.84
2018-11-12T06:53:24.767Z,92.78
2018-11-12T06:55:55.623Z,92.58
2018-11-12T06:58:26.682Z,92.45
2018-11-12T07:00:57.847Z,92.54
2018-11-12T07:03:28.873Z,92.51
2018-11-12T07:05:59.873Z,92.65
2018-11-12T07:08:31.220Z,92.71
2018-11-12T07:11:02.173Z,92.55
2018-11-12T07:13:33.263Z,92.70
2018-11-12T07:16:04.283Z,92.78
2018-11-12T07:18:35.652Z,92.82
2018-11-12T07:21:06.747Z,92.74
2018-11-12T07:23:37.697Z,92.47
2018-11-12T07:26:08.835Z,92.63
2018-11-12T07:28:39.793Z,92.58
2018-11-12T07:31:10.897Z,92.54
2018-11-12T07:33:41.837Z,92.56
2018-11-12T07:36:12.750Z,92.73
2018-11-12T07:38:43.750Z,92.52
2018-11-12T07:41:14.855Z,92.55
2018-11-12T07:43:45.792Z,92.37
2018-11-12T07:46:17.189Z,92.54
2018-11-12T07:48:48.107Z,92.36
2018-11-12T07:51:19.226Z,92.21
2018-11-12T07:53:50.220Z,92.31
2018-11-12T07:56:21.462Z,92.29
2018-11-12T07:58:52.437Z,92.03
2018-11-12T08:01:23.389Z,91.83
2018-11-12T08:03:54.428Z,91.72
2018-11-12T08:06:25.476Z,91.95
2018-11-12T08:08:56.896Z,92.24
2018-11-12T08:11:28.036Z,92.27
2018-11-12T08:13:59.063Z,92.22
2018-11-12T08:16:30.131Z,92.06
2018-11-12T08:19:01.207Z,91.64
2018-11-12T08:21:32.462Z,91.70
2018-11-12T08:24:03.454Z,91.75
2018-11-12T08:26:34.458Z,91.67
2018-11-12T08:29:05.827Z,91.33
2018-11-12T08:31:36.836Z,91.34
2018-11-12T08:34:07.810Z,91.61
2018-11-12T08:36:39.254Z,91.16
2018-11-12T08:39:10.600Z,90.86
2018-11-12T08:41:41.685Z,91.06
2018-11-12T08:44:12.745Z,90.66
2018-11-12T08:46:43.780Z,90.92
2018-11-12T08:49:15.002Z,90.55
2018-11-12T08:51:45.708Z,90.27
2018-11-12T08:54:16.644Z,90.67
2018-11-12T08:56:47.478Z,90.61
2018-11-12T08:59:18.712Z,90.87
2018-11-12T09:01:49.553Z,90.76
2018-11-12T09:04:20.421Z,90.72
2018-11-12T09:06:51.310Z,90.99
2018-11-12T09:09:23.010Z,90.18
2018-11-12T09:11:53.952Z,90.27
2018-11-12T09:14:24.825Z,90.52
2018-11-12T09:16:55.797Z,90.69
2018-11-12T09:19:26.734Z,90.47
2018-11-12T09:21:57.691Z,89.83
2018-11-12T09:24:28.627Z,90.07
2018-11-12T09:26:59.834Z,90.40
2018-11-12T09:29:31.010Z,89.95
2018-11-12T09:32:01.832Z,89.81
2018-11-12T09:34:32.773Z,89.53
2018-11-12T09:37:03.690Z,89.94
2018-11-12T09:39:34.562Z,90.14
2018-11-12T09:42:05.720Z,89.91
2018-11-12T09:44:36.733Z,89.85
2018-11-12T09:47:07.618Z,88.71
2018-11-12T09:49:38.503Z,89.85
2018-11-12T09:52:09.565Z,90.13
2018-11-12T09:54:40.450Z,89.73
2018-11-12T09:57:11.637Z,89.92
2018-11-12T09:59:42.516Z,89.80
2018-11-12T10:02:14.255Z,89.59
2018-11-12T10:04:45.564Z,89.44
2018-11-12T10:07:16.945Z,88.98
2018-11-12T10:09:48.700Z,89.17
2018-11-12T10:12:19.481Z,88.62
2018-11-12T10:14:51.040Z,88.49
2018-11-12T10:17:22.915Z,88.64
2018-11-12T10:19:51.364Z,88.51
2018-11-12T10:22:22.275Z,88.69
2018-11-12T10:24:53.148Z,88.69
2018-11-12T10:27:24.035Z,88.26
2018-11-12T10:29:54.923Z,89.02
2018-11-12T10:32:25.897Z,88.72
2018-11-12T10:34:56.777Z,88.69
2018-11-12T10:37:27.657Z,88.47
2018-11-12T10:39:58.536Z,88.53
2018-11-12T10:42:29.428Z,88.79
2018-11-12T10:45:00.299Z,89.35
2018-11-12T10:47:31.225Z,88.69
2018-11-12T10:50:02.396Z,89.18
2018-11-12T10:52:33.780Z,88.51
2018-11-12T10:55:05.534Z,88.81
2018-11-12T10:57:35.647Z,88.17
2018-11-12T11:00:13.279Z,87.92
2018-11-12T11:03:01.772Z,88.00
2018-11-12T11:05:33.181Z,86.60
2018-11-12T11:08:04.122Z,87.34
2018-11-12T11:10:35.002Z,87.49
2018-11-12T11:13:06.518Z,87.31
2018-11-12T11:15:38.138Z,87.29
2018-11-12T11:18:09.236Z,88.05
2018-11-12T11:20:40.091Z,87.87
2018-11-12T11:23:11.012Z,88.40
2018-11-12T11:25:42.220Z,88.71
2018-11-12T11:28:13.076Z,88.69
2018-11-12T11:30:43.983Z,88.95
2018-11-12T11:33:15.242Z,88.83
2018-11-12T11:35:46.503Z,88.54
2018-11-12T11:38:17.399Z,88.60
2018-11-12T11:40:48.379Z,89.29
2018-11-12T11:43:19.260Z,89.40
2018-11-12T11:45:50.170Z,89.01
2018-11-12T11:48:21.062Z,89.21
2018-11-12T11:50:52.005Z,88.29
2018-11-12T11:53:22.969Z,87.75
2018-11-12T11:55:53.861Z,86.57
2018-11-12T11:58:24.746Z,86.79
2018-11-12T12:00:55.730Z,86.87
2018-11-12T12:03:27.191Z,86.33
2018-11-12T12:05:58.448Z,86.07
2018-11-12T12:08:29.353Z,85.97
2018-11-12T12:11:00.221Z,85.42
2018-11-12T12:13:31.165Z,85.79
2018-11-12T12:16:02.332Z,86.08
2018-11-12T12:18:33.236Z,85.89
2018-11-12T12:21:04.091Z,86.10
2018-11-12T12:23:35.022Z,85.25
2018-11-12T12:26:05.897Z,84.66
2018-11-12T12:28:36.813Z,85.73
2018-11-12T12:31:07.708Z,86.25
2018-11-12T12:33:38.976Z,84.84
2018-11-12T12:36:09.958Z,85.37
2018-11-12T12:38:40.783Z,84.62
2018-11-12T12:41:11.668Z,83.59
2018-11-12T12:43:42.565Z,83.64
2018-11-12T12:46:13.494Z,83.57
2018-11-12T12:48:44.635Z,83.77
2018-11-12T12:51:16.183Z,83.76
2018-11-12T12:53:47.053Z,84.46
2018-11-12T12:56:18.319Z,84.51
2018-11-12T12:58:49.542Z,84.34
2018-11-12T13:01:20.453Z,83.72
2018-11-12T13:03:51.502Z,82.99
2018-11-12T13:06:22.822Z,82.61
2018-11-12T13:08:53.720Z,82.28
2018-11-12T13:11:24.613Z,81.07
2018-11-12T13:13:55.632Z,81.88
2018-11-12T13:16:26.417Z,81.39
2018-11-12T13:18:57.333Z,80.12
2018-11-12T13:21:28.535Z,79.52
2018-11-12T13:23:59.418Z,79.29
2018-11-12T13:26:30.381Z,79.62
2018-11-12T13:29:01.344Z,79.96
2018-11-12T13:31:32.281Z,79.23
2018-11-12T13:34:03.594Z,77.96
2018-11-12T13:36:34.484Z,77.60
2018-11-12T13:39:08.490Z,75.53
2018-11-12T13:41:39.654Z,75.71
2018-11-12T13:44:10.624Z,77.93
2018-11-12T13:46:55.163Z,79.06
2018-11-12T13:49:26.184Z,78.30
2018-11-12T13:51:57.117Z,78.00
2018-11-12T13:54:28.017Z,75.29
2018-11-12T13:56:58.920Z,76.17
2018-11-12T13:59:30.141Z,78.90
2018-11-12T14:02:01.039Z,81.13
2018-11-12T14:04:32.537Z,81.89
2018-11-12T14:07:03.790Z,82.38
2018-11-12T14:09:35.210Z,78.86
2018-11-12T14:12:06.417Z,78.93
2018-11-12T14:14:37.376Z,79.89
2018-11-12T14:17:08.296Z,81.57
2018-11-12T14:19:39.162Z,82.69
2018-11-12T14:22:10.044Z,83.85
2018-11-12T14:24:40.921Z,85.31
2018-11-12T14:27:11.820Z,86.30
2018-11-12T14:29:42.683Z,87.04
2018-11-12T14:32:13.588Z,87.04
2018-11-12T14:34:44.475Z,87.09
2018-11-12T14:37:15.367Z,87.43
2018-11-12T14:39:46.322Z,87.24
2018-11-12T14:42:18.018Z,87.23
2018-11-12T14:44:48.937Z,86.46
2018-11-12T14:47:20.187Z,84.07
2018-11-12T14:49:51.070Z,82.25
2018-11-12T14:52:22.033Z,80.52
2018-11-12T14:54:52.937Z,80.88
2018-11-12T14:57:23.818Z,82.41
2018-11-12T14:59:54.685Z,84.04
2018-11-12T15:02:25.788Z,84.94
2018-11-12T15:04:56.887Z,84.43
2018-11-12T15:07:27.779Z,84.51
2018-11-12T15:09:58.973Z,84.68
2018-11-12T15:12:29.851Z,85.22
2018-11-12T15:15:00.760Z,85.39
2018-11-12T15:17:32.064Z,85.67
2018-11-12T15:20:02.942Z,84.95
2018-11-12T15:22:33.842Z,85.99
2018-11-12T15:25:04.711Z,86.22
2018-11-12T15:27:35.601Z,87.70
2018-11-12T15:30:08.955Z,88.40
2018-11-12T15:32:40.222Z,89.33
2018-11-12T15:35:12.231Z,89.93
2018-11-12T15:37:43.881Z,90.09
2018-11-12T15:40:15.141Z,90.17
2018-11-12T15:42:46.027Z,89.85
2018-11-12T15:45:19.550Z,89.33
2018-11-12T15:47:50.725Z,88.53
2018-11-12T15:50:36.308Z,88.74
2018-11-12T15:53:07.170Z,89.26
2018-11-12T15:55:38.041Z,89.78
2018-11-12T15:58:09.031Z,90.08
2018-11-12T16:00:39.829Z,90.20
2018-11-12T16:03:10.689Z,91.05
2018-11-12T16:05:41.585Z,91.26
2018-11-12T16:08:12.443Z,91.16
2018-11-12T16:10:43.322Z,91.16
2018-11-12T16:13:14.202Z,91.25
2018-11-12T16:15:45.130Z,91.12
2018-11-12T16:18:16.041Z,91.16
2018-11-12T16:20:46.917Z,91.26
2018-11-12T16:23:18.335Z,91.48
2018-11-12T16:25:49.277Z,91.40
2018-11-12T16:28:20.655Z,91.30
2018-11-12T16:30:51.566Z,91.37
2018-11-12T16:33:22.751Z,91.29
2018-11-12T16:35:53.629Z,91.58
2018-11-12T16:38:24.829Z,91.99
2018-11-12T16:40:55.685Z,91.73
2018-11-12T16:43:26.885Z,92.16
2018-11-12T16:45:57.836Z,92.24
2018-11-12T16:48:28.952Z,92.06
2018-11-12T16:50:59.813Z,92.11
2018-11-12T16:53:30.695Z,92.03
2018-11-12T16:56:01.974Z,91.99
2018-11-12T16:58:32.875Z,92.13
2018-11-12T17:01:03.729Z,92.27
2018-11-12T17:03:34.944Z,92.30
2018-11-12T17:06:05.804Z,92.37
2018-11-12T17:08:36.651Z,91.99
2018-11-12T17:11:07.611Z,91.70
2018-11-12T17:13:38.388Z,91.80
2018-11-12T17:16:09.231Z,91.71
2018-11-12T17:18:40.508Z,91.79
2018-11-12T17:21:11.359Z,91.97
2018-11-12T17:23:42.801Z,91.99
2018-11-12T17:26:13.644Z,91.98
2018-11-12T17:28:44.492Z,92.03
2018-11-12T17:31:15.338Z,92.18
2018-11-12T17:33:46.182Z,92.25
2018-11-12T17:36:17.028Z,92.23
2018-11-12T17:38:47.845Z,92.22
2018-11-12T17:41:18.798Z,92.20
2018-11-12T17:43:49.634Z,92.26
2018-11-12T17:46:21.248Z,92.34
2018-11-12T17:48:52.386Z,92.41
2018-11-12T17:51:23.486Z,92.35
2018-11-12T17:53:54.351Z,92.36
2018-11-12T17:56:25.214Z,92.41
2018-11-12T17:58:56.107Z,92.44
2018-11-12T18:01:27.328Z,92.52
2018-11-12T18:03:58.408Z,92.46
2018-11-12T18:06:29.887Z,92.41
2018-11-12T18:09:00.728Z,92.37
2018-11-12T18:11:31.865Z,92.52
2018-11-12T18:14:02.771Z,92.56
2018-11-12T18:16:34.407Z,92.66
2018-11-12T18:19:05.293Z,92.67
2018-11-12T18:21:36.183Z,92.65
2018-11-12T18:24:07.664Z,92.60
2018-11-12T18:26:38.518Z,92.58
2018-11-12T18:29:09.352Z,92.57
2018-11-12T18:31:40.419Z,92.63
2018-11-12T18:34:11.769Z,92.70
2018-11-12T18:36:42.658Z,92.65
2018-11-12T18:39:14.668Z,92.69
2018-11-12T18:41:45.876Z,92.75
2018-11-12T18:44:16.720Z,92.75
2018-11-12T18:46:47.652Z,92.72
2018-11-12T18:49:18.539Z,92.72
2018-11-12T18:51:49.697Z,92.67
2018-11-12T18:54:20.859Z,92.75
2018-11-12T18:56:51.762Z,92.85
2018-11-12T18:59:22.602Z,92.79
2018-11-12T19:01:53.435Z,92.72
2018-11-12T19:04:24.261Z,92.75
2018-11-12T19:06:55.091Z,92.80
2018-11-12T19:09:26.238Z,92.78
2018-11-12T19:11:57.480Z,92.76
2018-11-12T19:14:28.676Z,92.84
2018-11-12T19:17:00.250Z,92.94
2018-11-12T19:19:31.237Z,92.95
2018-11-12T19:22:02.469Z,92.84
2018-11-12T19:24:33.368Z,92.75
2018-11-12T19:27:04.783Z,92.76
2018-11-12T19:29:35.603Z,92.83
2018-11-12T19:32:06.846Z,92.71
2018-11-12T19:34:38.100Z,92.72
2018-11-12T19:37:09.273Z,92.69
2018-11-12T19:39:40.146Z,92.70
2018-11-12T19:42:11.343Z,92.68
2018-11-12T19:44:42.474Z,92.85
2018-11-12T19:47:13.399Z,92.85
2018-11-12T19:49:44.883Z,92.81
2018-11-12T19:52:15.757Z,92.79
2018-11-12T19:54:47.335Z,92.77
2018-11-12T19:57:18.475Z,92.76
2018-11-12T19:59:49.317Z,92.68
2018-11-12T20:02:20.237Z,92.77
2018-11-12T20:04:51.773Z,92.70
2018-11-12T20:07:22.655Z,92.71
2018-11-12T20:09:53.523Z,92.73
2018-11-12T20:12:24.357Z,92.83
2018-11-12T20:14:55.330Z,92.85
2018-11-12T20:17:26.534Z,92.90
2018-11-12T20:19:58.188Z,92.78
2018-11-12T20:22:29.323Z,92.88
2018-11-12T20:25:00.497Z,92.78
2018-11-12T20:27:31.272Z,92.78
2018-11-12T20:30:02.169Z,92.79
2018-11-12T20:32:33.050Z,92.75
2018-11-12T20:35:03.918Z,92.71
2018-11-12T20:37:34.752Z,92.40
2018-11-12T20:40:06.083Z,92.58
2018-11-12T20:42:37.018Z,92.68
2018-11-12T20:45:10.091Z,92.67
2018-11-12T20:47:41.503Z,92.66
2018-11-12T20:50:13.676Z,92.68
2018-11-12T20:52:44.936Z,92.70
2018-11-12T20:55:17.086Z,92.58
2018-11-12T20:57:48.903Z,92.73
2018-11-12T21:00:27.721Z,92.69
2018-11-12T21:02:58.624Z,92.80
2018-11-12T21:05:31.016Z,92.78
2018-11-12T21:08:02.535Z,92.71
2018-11-12T21:10:33.663Z,92.64
2018-11-12T21:13:04.836Z,92.55
2018-11-12T21:15:35.661Z,92.58
2018-11-12T21:18:06.733Z,92.59
2018-11-12T21:20:37.628Z,92.52
2018-11-12T21:23:08.916Z,92.63
2018-11-12T21:25:39.759Z,92.65
2018-11-12T21:28:10.605Z,92.54
2018-11-12T21:30:41.439Z,92.64
2018-11-12T21:33:12.755Z,92.67
2018-11-12T21:35:43.592Z,92.54
2018-11-12T21:38:15.096Z,92.57
2018-11-12T21:40:45.926Z,92.71
2018-11-12T21:43:16.902Z,92.70
2018-11-12T21:45:47.646Z,92.87
2018-11-12T21:48:18.497Z,92.98
2018-11-12T21:50:49.354Z,92.93
2018-11-12T21:53:20.208Z,92.94
2018-11-12T21:55:51.051Z,92.95
2018-11-12T21:58:21.949Z,92.87
2018-11-12T22:00:53.445Z,92.89
2018-11-12T22:05:47.478Z,92.94
2018-11-12T22:08:18.677Z,92.98
2018-11-12T22:10:49.886Z,92.96
2018-11-12T22:13:20.750Z,92.91
2018-11-12T22:15:51.647Z,92.88
2018-11-12T22:18:22.556Z,92.96
2018-11-12T22:20:53.412Z,92.81
2018-11-12T22:23:24.306Z,92.87
2018-11-12T22:25:55.218Z,92.81
2018-11-12T22:28:26.728Z,92.74
2018-11-12T22:30:57.584Z,92.99
2018-11-12T22:33:28.835Z,93.02
2018-11-12T22:35:59.747Z,92.99
2018-11-12T22:38:30.597Z,92.90
2018-11-12T22:41:01.468Z,92.95
2018-11-12T22:43:32.644Z,93.06
2018-11-12T22:46:03.786Z,93.00
2018-11-12T22:48:34.724Z,92.92
2018-11-12T22:51:05.665Z,92.91
2018-11-12T22:53:36.572Z,92.93
2018-11-12T22:56:07.909Z,92.91
2018-11-12T22:58:38.815Z,92.97
2018-11-12T23:01:09.689Z,93.03
2018-11-12T23:03:40.562Z,92.99
2018-11-12T23:06:12.055Z,92.90
2018-11-12T23:08:43.463Z,92.85
2018-11-12T23:11:14.411Z,92.82
2018-11-12T23:13:45.382Z,92.84
2018-11-12T23:16:16.343Z,92.90
2018-11-12T23:18:47.276Z,92.81
2018-11-12T23:21:18.174Z,92.84
2018-11-12T23:23:49.389Z,92.95
2018-11-12T23:26:20.256Z,92.93
2018-11-12T23:28:51.394Z,92.92
2018-11-12T23:31:22.621Z,92.91
2018-11-12T23:33:53.589Z,92.73
2018-11-12T23:36:24.997Z,92.88
2018-11-12T23:38:56.241Z,92.90
2018-11-12T23:41:27.131Z,92.77
2018-11-12T23:43:58.295Z,92.69
2018-11-12T23:46:29.556Z,92.65
2018-11-12T23:49:01.128Z,92.77
2018-11-12T23:51:32.132Z,92.66
2018-11-12T23:54:03.039Z,92.66
2018-11-12T23:56:33.925Z,92.71
2018-11-12T23:59:05.122Z,92.77
